Time;durP1;ratioP1;P1;durP2;ratioP2;P2;SDS_P1;SDS_P2;PMS_P1;PMS_P2;Temp;Humidity;BMP_temperature;BMP_pressure;BME280_temperature;BME280_humidity;BME280_pressure;Samples;Min_cycle;Max_cycle;Signal;HPM_P1;HPM_P2
2024/01/30 00:02:17;;;;;;;33.20;15.50;;;;;;;0.17;82.14;101699.15;82142;1294;3011345;-77
2024/01/30 00:04:45;;;;;;;28.20;15.20;;;;;;;0.03;82.85;101696.48;80883;1292;3026373;-76
2024/01/30 00:07:12;;;;;;;29.80;14.10;;;;;;;-0.05;83.44;101694.45;82151;1294;3012849;-76
2024/01/30 00:09:39;;;;;;;30.20;14.70;;;;;;;-0.08;83.22;101696.10;82149;1292;3011590;-75
2024/01/30 00:12:07;;;;;;;28.10;13.70;;;;;;;-0.19;83.21;101697.28;80929;1295;3051476;-75
2024/01/30 00:14:34;;;;;;;27.60;14.00;;;;;;;-0.32;84.03;101694.95;82173;1297;3019334;-74
2024/01/30 00:17:00;;;;;;;25.10;13.80;;;;;;;-0.31;84.13;101694.64;82145;1296;3011456;-74
2024/01/30 00:19:28;;;;;;;26.90;13.40;;;;;;;-0.24;83.79;101698.20;80899;1292;3026613;-72
2024/01/30 00:21:55;;;;;;;29.70;13.80;;;;;;;-0.42;83.66;101699.58;82165;1292;3018066;-76
2024/01/30 00:24:21;;;;;;;32.20;15.20;;;;;;;-0.45;83.78;101699.69;82155;1292;3011322;-75
2024/01/30 00:26:49;;;;;;;34.00;14.60;;;;;;;-0.43;83.96;101695.95;80907;1293;3026420;-75
2024/01/30 00:29:19;;;;;;;29.90;14.20;;;;;;;-0.45;83.49;101693.34;82167;1296;3012732;-73
2024/01/30 00:31:46;;;;;;;29.80;13.70;;;;;;;-0.54;83.89;101691.25;82181;1295;3011267;-75
2024/01/30 00:34:13;;;;;;;32.20;14.90;;;;;;;-0.53;83.46;101688.01;80921;1292;3069729;-73
2024/01/30 00:36:40;;;;;;;32.80;11.70;;;;;;;-0.55;83.60;101685.20;82177;1293;3018288;-74
2024/01/30 00:39:08;;;;;;;29.10;13.40;;;;;;;-0.02;82.71;101684.33;82149;1292;3011428;-74
2024/01/30 00:41:36;;;;;;;26.30;13.30;;;;;;;0.49;80.49;101682.45;80911;1292;3051553;-74
2024/01/30 00:44:04;;;;;;;29.20;13.50;;;;;;;0.77;79.09;101681.15;82190;1295;3018329;-73
2024/01/30 00:46:31;;;;;;;32.80;14.70;;;;;;;0.66;78.77;101682.38;82123;1294;3011499;-74
2024/01/30 00:48:59;;;;;;;29.70;15.10;;;;;;;0.51;79.12;101679.55;80939;1292;3068167;-75
2024/01/30 00:51:26;;;;;;;33.10;14.60;;;;;;;0.45;79.05;101678.43;82192;1293;3013253;-74
2024/01/30 00:53:52;;;;;;;27.90;14.30;;;;;;;0.21;79.04;101680.78;82203;1292;3011389;-73
2024/01/30 00:56:20;;;;;;;29.70;14.20;;;;;;;0.06;79.86;101678.27;80904;1292;3026178;-74
2024/01/30 00:58:47;;;;;;;30.30;14.20;;;;;;;-0.02;79.80;101677.95;82184;1296;3013134;-73
2024/01/30 01:01:14;;;;;;;36.20;15.90;;;;;;;-0.09;80.16;101678.86;82191;1294;3011308;-74
2024/01/30 01:03:43;;;;;;;30.40;14.30;;;;;;;-0.15;80.17;101676.52;80912;1293;3068581;-73
2024/01/30 01:06:10;;;;;;;35.50;15.70;;;;;;;-0.19;79.76;101673.52;82150;1298;3012701;-74
2024/01/30 01:08:38;;;;;;;28.60;14.40;;;;;;;-0.30;80.12;101670.02;82158;1292;3011214;-73
2024/01/30 01:11:06;;;;;;;27.30;13.40;;;;;;;-0.27;79.78;101674.90;80914;1292;3053733;-74
2024/01/30 01:13:33;;;;;;;25.70;13.20;;;;;;;-0.28;79.83;101672.31;82171;1297;3018725;-74
2024/01/30 01:16:00;;;;;;;26.40;13.50;;;;;;;-0.40;79.80;101671.22;82173;1295;3011229;-74
2024/01/30 01:18:27;;;;;;;30.50;13.30;;;;;;;-0.40;80.33;101674.48;80929;1295;3027153;-73
2024/01/30 01:20:54;;;;;;;28.00;13.60;;;;;;;-0.42;80.53;101674.79;82174;1292;3018025;-73
2024/01/30 01:23:20;;;;;;;32.40;14.00;;;;;;;-0.48;79.97;101673.98;82160;1292;3011157;-74
2024/01/30 01:25:49;;;;;;;31.20;13.70;;;;;;;-0.49;79.96;101675.33;80888;1298;3026740;-75
2024/01/30 01:28:15;;;;;;;26.10;12.80;;;;;;;-0.53;80.25;101676.13;82167;1295;3012789;-75
2024/01/30 01:30:43;;;;;;;25.80;12.60;;;;;;;-0.47;80.28;101675.38;82113;1294;3011235;-74
2024/01/30 01:33:15;;;;;;;27.40;13.30;;;;;;;-0.50;79.80;101670.32;80908;1292;3069086;-75
2024/01/30 01:35:41;;;;;;;26.10;12.70;;;;;;;-0.53;79.54;101671.15;82159;1294;3011418;-74
2024/01/30 01:38:09;;;;;;;28.80;13.60;;;;;;;-0.61;79.83;101670.09;80879;1292;3027365;-74
2024/01/30 01:40:36;;;;;;;25.60;12.90;;;;;;;-0.66;80.26;101670.17;82159;1296;3012674;-74
2024/01/30 01:43:03;;;;;;;28.90;13.10;;;;;;;-0.56;79.87;101670.54;82149;1295;3011327;-75
2024/01/30 01:45:32;;;;;;;23.50;12.40;;;;;;;-0.63;79.74;101667.83;80884;1297;3053109;-75
2024/01/30 01:47:58;;;;;;;25.30;11.50;;;;;;;-0.63;79.54;101664.21;82200;1295;3018443;-73
2024/01/30 01:50:25;;;;;;;32.80;13.40;;;;;;;-0.60;79.23;101665.14;82106;1294;3011333;-71
2024/01/30 01:52:53;;;;;;;33.00;13.10;;;;;;;-0.59;79.09;101662.23;80887;1295;3025929;-72
2024/01/30 01:55:26;;;;;;;25.20;11.70;;;;;;;-0.60;79.16;101664.45;82173;1298;3012390;-72
2024/01/30 01:57:54;;;;;;;30.10;12.40;;;;;;;-0.68;78.78;101668.59;80875;1295;3049351;-75
2024/01/30 02:00:21;;;;;;;24.50;11.50;;;;;;;-0.72;79.15;101662.31;82098;1297;3012723;-75
2024/01/30 02:02:50;;;;;;;23.90;11.40;;;;;;;-0.71;78.95;101663.69;82107;1295;3011132;-74
2024/01/30 02:05:18;;;;;;;24.20;12.10;;;;;;;-0.70;79.11;101665.27;80914;1295;3050128;-73
2024/01/30 02:07:45;;;;;;;26.70;12.80;;;;;;;-0.71;79.30;101666.27;82054;1292;3011402;-75
2024/01/30 02:10:12;;;;;;;26.80;12.80;;;;;;;-0.72;79.61;101666.77;82171;1292;3011246;-76
2024/01/30 02:12:41;;;;;;;24.00;12.10;;;;;;;-0.64;79.43;101664.86;80918;1292;3026454;-75
2024/01/30 02:15:14;;;;;;;22.70;10.70;;;;;;;-0.56;79.72;101661.24;82193;1297;3012821;-76
2024/01/30 02:17:56;;;;;;;23.20;10.90;;;;;;;-0.59;79.03;101659.98;80906;1292;3069155;-72
2024/01/30 02:20:23;;;;;;;22.90;9.60;;;;;;;-0.63;78.65;101659.02;82168;1295;3012760;-75
2024/01/30 02:22:51;;;;;;;21.70;10.70;;;;;;;-0.59;78.44;101659.30;82149;1293;3011436;-74
2024/01/30 02:25:20;;;;;;;21.70;10.30;;;;;;;-0.61;78.39;101657.73;80781;1295;3051821;-74
2024/01/30 02:27:48;;;;;;;20.90;10.60;;;;;;;-0.64;78.25;101658.52;82185;1296;3012921;-76
2024/01/30 02:30:16;;;;;;;20.30;10.10;;;;;;;-0.59;78.60;101656.73;82177;1295;3011320;-74
2024/01/30 02:32:45;;;;;;;17.30;10.00;;;;;;;-0.60;78.58;101651.70;80899;1292;3068076;-73
2024/01/30 02:35:11;;;;;;;24.30;10.80;;;;;;;-0.59;78.41;101648.98;82209;1292;3018365;-71
2024/01/30 02:37:38;;;;;;;23.20;10.80;;;;;;;-0.68;78.66;101651.37;82155;1293;3011382;-69
2024/01/30 02:40:07;;;;;;;20.70;10.10;;;;;;;-0.73;78.72;101650.24;80860;1292;3026268;-72
2024/01/30 02:42:34;;;;;;;20.40;11.20;;;;;;;-0.60;79.03;101642.23;82166;1295;3012574;-70
2024/01/30 02:45:00;;;;;;;19.80;10.30;;;;;;;-0.48;79.00;101632.99;82151;1295;3011279;-71
2024/01/30 02:47:28;;;;;;;17.50;8.80;;;;;;;-0.46;78.14;101631.48;80915;1293;3068095;-71
2024/01/30 02:49:55;;;;;;;20.30;10.50;;;;;;;-0.46;77.97;101634.94;82191;1292;3012728;-70
2024/01/30 02:52:21;;;;;;;21.90;10.70;;;;;;;-0.50;78.60;101634.34;82139;1292;3011299;-70
2024/01/30 02:54:48;;;;;;;19.30;10.10;;;;;;;-0.46;78.30;101633.89;80093;1297;3026148;-71
2024/01/30 02:57:15;;;;;;;21.10;9.90;;;;;;;-0.52;77.95;101634.29;82171;1298;3012704;-72
2024/01/30 02:59:42;;;;;;;21.70;9.90;;;;;;;-0.60;78.62;101637.41;82188;1293;3011440;-72
2024/01/30 03:02:10;;;;;;;18.50;9.50;;;;;;;-0.63;78.51;101629.27;80906;1294;3025712;-70
2024/01/30 03:04:36;;;;;;;23.60;10.10;;;;;;;-0.61;78.64;101627.92;82222;1292;3012791;-71
2024/01/30 03:07:03;;;;;;;23.20;11.10;;;;;;;-0.62;78.57;101623.61;82122;1295;3011707;-72
2024/01/30 03:09:31;;;;;;;22.20;12.70;;;;;;;-0.63;78.73;101625.83;80877;1295;3026023;-75
2024/01/30 03:11:58;;;;;;;28.20;12.70;;;;;;;-0.72;78.92;101626.16;82160;1292;3018306;-74
2024/01/30 03:14:24;;;;;;;32.90;16.50;;;;;;;-0.72;78.97;101620.65;82177;1292;3011382;-73
2024/01/30 03:16:52;;;;;;;31.40;16.70;;;;;;;-0.78;79.23;101617.09;80843;1295;3026653;-75
2024/01/30 03:19:18;;;;;;;37.20;17.60;;;;;;;-0.86;79.95;101618.48;82168;1292;3013208;-73
2024/01/30 03:21:45;;;;;;;39.40;18.50;;;;;;;-0.88;80.47;101619.13;82145;1292;3011060;-77
2024/01/30 03:24:13;;;;;;;38.90;19.50;;;;;;;-0.95;80.75;101617.75;80891;1292;3025982;-75
2024/01/30 03:26:40;;;;;;;44.50;18.90;;;;;;;-0.99;80.79;101617.51;82131;1297;3012776;-75
2024/01/30 03:29:07;;;;;;;47.10;20.70;;;;;;;-1.03;81.14;101611.75;82169;1294;3011540;-75
2024/01/30 03:31:35;;;;;;;46.00;18.10;;;;;;;-1.08;81.20;101613.88;80877;1297;3067615;-74
2024/01/30 03:34:02;;;;;;;39.50;18.10;;;;;;;-0.67;81.17;101612.65;82194;1292;3012580;-73
2024/01/30 03:36:29;;;;;;;41.90;16.90;;;;;;;0.14;78.79;101611.71;82150;1293;3011482;-74
2024/01/30 03:38:58;;;;;;;42.10;18.30;;;;;;;0.36;77.60;101608.98;80896;1292;3054422;-75
2024/01/30 03:41:25;;;;;;;35.80;16.10;;;;;;;0.26;77.19;101606.73;82202;1295;3012653;-75
2024/01/30 03:43:52;;;;;;;39.60;17.60;;;;;;;0.05;77.63;101601.73;82147;1298;3011353;-74
2024/01/30 03:46:20;;;;;;;25.00;12.20;;;;;;;-0.04;78.08;101599.70;80892;1294;3069552;-73
2024/01/30 03:48:46;;;;;;;23.70;12.30;;;;;;;-0.20;77.67;101603.04;82218;1292;3013364;-73
2024/01/30 03:51:14;;;;;;;26.70;12.40;;;;;;;-0.36;78.37;101608.26;82151;1294;3011177;-74
2024/01/30 03:53:42;;;;;;;19.30;11.20;;;;;;;-0.49;78.20;101604.93;80873;1295;3052514;-73
2024/01/30 03:56:09;;;;;;;21.30;10.90;;;;;;;-0.59;78.12;101603.52;82184;1295;3012496;-72
2024/01/30 03:58:36;;;;;;;21.20;10.80;;;;;;;-0.89;78.28;101611.53;82150;1292;3011309;-76
2024/01/30 04:01:03;;;;;;;22.90;11.00;;;;;;;-1.07;79.16;101604.27;80896;1293;3026403;-75
2024/01/30 04:03:30;;;;;;;23.90;11.90;;;;;;;-1.12;79.47;101603.30;82207;1292;3012670;-75
2024/01/30 04:05:59;;;;;;;26.30;13.20;;;;;;;-1.15;79.39;101608.39;82185;1292;3011816;-75
2024/01/30 04:08:28;;;;;;;26.00;13.20;;;;;;;-1.27;79.87;101602.80;80926;1292;3053744;-76
2024/01/30 04:10:57;;;;;;;28.00;13.30;;;;;;;-1.37;80.62;101608.95;82126;1292;3011508;-75
2024/01/30 04:13:24;;;;;;;29.10;12.90;;;;;;;-1.40;80.86;101611.27;82202;1293;3011424;-74
2024/01/30 04:15:56;;;;;;;27.00;12.40;;;;;;;-1.42;80.94;101607.45;80833;1294;3067423;-75
2024/01/30 04:18:22;;;;;;;25.20;11.60;;;;;;;-1.57;81.19;101607.80;82161;1293;3011436;-74
2024/01/30 04:20:51;;;;;;;27.30;12.10;;;;;;;-1.73;82.07;101610.70;81641;1292;3011533;-75
2024/01/30 04:23:18;;;;;;;24.60;11.10;;;;;;;-1.59;82.24;101606.56;82197;1294;3012819;-76
2024/01/30 04:25:44;;;;;;;24.90;11.60;;;;;;;-1.56;82.13;101608.52;82198;1292;3011121;-74
2024/01/30 04:28:12;;;;;;;18.50;9.60;;;;;;;-1.50;81.31;101613.13;80902;1293;3026227;-74
2024/01/30 04:30:39;;;;;;;21.60;10.10;;;;;;;-1.64;81.39;101608.84;82230;1292;3012574;-75
2024/01/30 04:33:06;;;;;;;20.20;9.70;;;;;;;-1.75;81.56;101608.58;82170;1293;3011188;-74
2024/01/30 04:35:34;;;;;;;18.00;8.80;;;;;;;-1.75;81.94;101602.41;80883;1292;3026465;-72
2024/01/30 04:38:00;;;;;;;18.90;9.10;;;;;;;-1.77;82.16;101599.25;82195;1292;3017988;-73
2024/01/30 04:40:27;;;;;;;19.20;8.00;;;;;;;-1.65;81.63;101601.08;82159;1292;3011249;-72
2024/01/30 04:42:55;;;;;;;16.00;7.40;;;;;;;-1.70;81.94;101596.84;80900;1293;3025276;-76
2024/01/30 04:45:21;;;;;;;18.90;7.20;;;;;;;-1.09;81.52;101602.66;82166;1293;3018613;-74
2024/01/30 04:47:48;;;;;;;11.10;6.20;;;;;;;-0.57;78.44;101603.38;82181;1292;3011897;-75
2024/01/30 04:50:16;;;;;;;13.90;7.30;;;;;;;-0.68;77.54;101602.48;80905;1292;3027240;-78
2024/01/30 04:52:43;;;;;;;14.40;7.00;;;;;;;-0.66;77.71;101602.88;82217;1293;3012641;-77
2024/01/30 04:55:09;;;;;;;14.10;7.40;;;;;;;-0.76;77.80;101607.16;82168;1292;3011581;-77
2024/01/30 04:57:38;;;;;;;13.90;7.00;;;;;;;-0.91;77.85;101604.27;80829;1298;3051677;-75
2024/01/30 05:00:05;;;;;;;16.80;8.40;;;;;;;-1.06;78.41;101606.70;82179;1294;3018531;-74
2024/01/30 05:02:32;;;;;;;16.90;8.80;;;;;;;-0.97;78.50;101605.36;82185;1292;3011180;-73
2024/01/30 05:05:00;;;;;;;14.20;7.60;;;;;;;-1.05;78.69;101603.29;80907;1292;3057320;-73
2024/01/30 05:07:27;;;;;;;15.00;8.60;;;;;;;-1.26;79.10;101598.54;82168;1292;3013305;-76
2024/01/30 05:09:54;;;;;;;14.10;8.10;;;;;;;-1.24;79.44;101597.19;82178;1293;3011087;-74
2024/01/30 05:12:22;;;;;;;13.20;7.40;;;;;;;-1.28;79.28;101601.06;80915;1294;3026089;-73
2024/01/30 05:14:48;;;;;;;16.50;7.80;;;;;;;-1.32;79.15;101599.27;82205;1293;3012613;-73
2024/01/30 05:17:15;;;;;;;15.00;7.70;;;;;;;-1.31;79.51;101602.56;82164;1292;3011442;-73
2024/01/30 05:19:43;;;;;;;15.60;8.10;;;;;;;-1.28;79.81;101602.28;80901;1292;3026470;-74
2024/01/30 05:22:10;;;;;;;15.60;8.60;;;;;;;-1.27;79.43;101600.23;82179;1294;3012730;-72
2024/01/30 05:24:37;;;;;;;12.90;8.00;;;;;;;-1.23;79.78;101604.27;82151;1292;3011089;-73
2024/01/30 05:27:05;;;;;;;15.80;8.50;;;;;;;-1.33;79.56;101608.52;80873;1294;3052593;-74
2024/01/30 05:29:31;;;;;;;14.70;8.20;;;;;;;-1.36;80.06;101610.02;82214;1293;3012500;-75
2024/01/30 05:31:58;;;;;;;17.60;8.80;;;;;;;-1.30;79.78;101613.41;82173;1292;3011725;-72
2024/01/30 05:34:26;;;;;;;16.30;8.90;;;;;;;-1.24;79.59;101616.80;80907;1292;3026392;-73
2024/01/30 05:36:52;;;;;;;17.70;8.80;;;;;;;-1.24;79.23;101616.96;82165;1292;3012704;-76
2024/01/30 05:39:19;;;;;;;18.60;8.50;;;;;;;-1.26;79.91;101612.45;82143;1294;3011245;-75
2024/01/30 05:41:47;;;;;;;21.20;10.00;;;;;;;-1.26;80.20;101609.54;80895;1294;3027345;-75
2024/01/30 05:44:13;;;;;;;18.50;10.00;;;;;;;-1.29;80.00;101606.20;82173;1293;3013174;-72
2024/01/30 05:46:41;;;;;;;19.50;9.60;;;;;;;-1.25;79.93;101606.81;82184;1293;3011258;-75
2024/01/30 05:49:09;;;;;;;14.30;8.60;;;;;;;-1.25;80.00;101605.44;80899;1294;3055336;-77
2024/01/30 05:51:35;;;;;;;17.60;8.60;;;;;;;-1.29;80.01;101609.83;82176;1297;3013872;-73
2024/01/30 05:54:04;;;;;;;16.10;9.40;;;;;;;-1.25;80.20;101608.88;82172;1293;3011283;-72
2024/01/30 05:56:33;;;;;;;15.20;8.90;;;;;;;-1.25;80.17;101606.30;80871;1294;3051772;-72
2024/01/30 05:58:59;;;;;;;16.80;9.10;;;;;;;-1.31;80.15;101611.48;82198;1293;3012357;-73
2024/01/30 06:01:26;;;;;;;15.70;8.90;;;;;;;-1.25;80.33;101607.50;82159;1293;3011280;-74
2024/01/30 06:03:55;;;;;;;18.70;8.70;;;;;;;-1.22;80.08;101607.05;80909;1292;3027488;-75
2024/01/30 06:06:21;;;;;;;16.70;8.70;;;;;;;-1.08;79.96;101605.45;82148;1292;3012826;-75
2024/01/30 06:08:48;;;;;;;17.90;9.00;;;;;;;-1.00;79.40;101607.52;82154;1295;3011441;-74
2024/01/30 06:11:17;;;;;;;19.50;9.60;;;;;;;-1.01;79.04;101607.14;80909;1294;3051928;-72
2024/01/30 06:13:43;;;;;;;17.00;9.50;;;;;;;-0.96;79.17;101608.63;82183;1295;3012516;-74
2024/01/30 06:16:11;;;;;;;17.50;9.30;;;;;;;-0.95;79.08;101609.52;82181;1293;3011188;-75
2024/01/30 06:18:39;;;;;;;20.40;10.20;;;;;;;-0.89;79.17;101610.52;80921;1292;3055923;-74
2024/01/30 06:21:06;;;;;;;21.50;10.60;;;;;;;-0.80;79.01;101605.01;82109;1295;3013044;-74
2024/01/30 06:23:33;;;;;;;23.50;11.50;;;;;;;-0.90;78.79;101604.95;82174;1292;3011236;-74
2024/01/30 06:26:00;;;;;;;25.30;12.90;;;;;;;-0.83;78.82;101608.55;80882;1294;3025948;-76
2024/01/30 06:28:27;;;;;;;23.20;12.20;;;;;;;-0.83;78.76;101608.05;82168;1293;3018779;-77
2024/01/30 06:30:54;;;;;;;23.60;13.40;;;;;;;-0.81;78.66;101608.42;82183;1292;3011443;-74
2024/01/30 06:33:21;;;;;;;28.90;13.90;;;;;;;-0.79;78.74;101610.54;80915;1292;3025925;-76
2024/01/30 06:35:48;;;;;;;22.90;11.30;;;;;;;-0.79;78.47;101611.55;82230;1292;3012559;-74
2024/01/30 06:38:15;;;;;;;23.20;11.50;;;;;;;-0.79;78.42;101612.27;82203;1293;3011462;-74
2024/01/30 06:40:43;;;;;;;27.50;12.80;;;;;;;-0.81;78.35;101616.69;80933;1294;3025548;-74
2024/01/30 06:43:10;;;;;;;23.10;11.60;;;;;;;-0.77;78.01;101615.38;82219;1292;3011417;-75
2024/01/30 06:45:37;;;;;;;22.60;11.60;;;;;;;-0.65;78.03;101611.15;82191;1292;3011419;-75
2024/01/30 06:48:05;;;;;;;19.30;10.50;;;;;;;-0.50;77.42;101604.55;80933;1292;3056977;-77
2024/01/30 06:50:32;;;;;;;21.20;10.20;;;;;;;-0.49;77.00;101607.52;82196;1292;3011292;-76
2024/01/30 06:52:59;;;;;;;21.50;10.70;;;;;;;-0.45;76.87;101607.40;82160;1292;3011281;-78
2024/01/30 06:55:27;;;;;;;21.40;10.20;;;;;;;-0.43;76.79;101610.17;80897;1295;3052249;-75
2024/01/30 06:57:53;;;;;;;21.20;10.60;;;;;;;-0.43;76.44;101611.73;82142;1295;3018727;-74
2024/01/30 07:00:23;;;;;;;25.00;11.70;;;;;;;-0.37;76.54;101607.89;82158;1292;3011529;-75
2024/01/30 07:02:51;;;;;;;25.70;12.10;;;;;;;-0.24;76.80;101604.36;80885;1292;3056008;-75
2024/01/30 07:05:17;;;;;;;21.20;10.80;;;;;;;-0.23;75.99;101595.75;82173;1292;3018437;-74
2024/01/30 07:07:44;;;;;;;25.20;11.90;;;;;;;-0.04;76.00;101596.60;82173;1292;3010940;-76
2024/01/30 07:10:12;;;;;;;26.80;12.40;;;;;;;-0.04;75.36;101595.05;80905;1292;3025541;-75
2024/01/30 07:12:39;;;;;;;18.70;10.50;;;;;;;-0.08;74.73;101597.04;82214;1293;3013139;-76
2024/01/30 07:15:08;;;;;;;24.70;12.40;;;;;;;-0.15;75.28;101599.00;82119;1292;3011537;-77
2024/01/30 07:17:37;;;;;;;22.40;11.50;;;;;;;-0.25;75.27;101595.71;80880;1293;3054531;-73
2024/01/30 07:20:04;;;;;;;21.10;10.60;;;;;;;-0.30;75.33;101590.11;82159;1294;3012820;-74
2024/01/30 07:22:31;;;;;;;24.00;10.90;;;;;;;-0.23;75.52;101590.75;82159;1293;3011552;-73
2024/01/30 07:24:59;;;;;;;19.20;10.20;;;;;;;-0.33;75.47;101590.75;80908;1294;3052387;-72
2024/01/30 07:27:25;;;;;;;24.30;11.60;;;;;;;-0.43;75.99;101595.04;82164;1292;3012634;-74
2024/01/30 07:29:52;;;;;;;22.30;11.30;;;;;;;-0.56;76.50;101597.39;82109;1294;3011316;-71
2024/01/30 07:32:20;;;;;;;23.20;11.60;;;;;;;-0.40;76.64;101599.93;80880;1292;3025774;-73
2024/01/30 07:34:47;;;;;;;23.30;11.60;;;;;;;-0.23;76.12;101600.58;82133;1295;3012841;-71
2024/01/30 07:37:15;;;;;;;27.00;11.90;;;;;;;-0.11;75.70;101599.92;82181;1292;3011260;-70
2024/01/30 07:39:43;;;;;;;19.00;9.80;;;;;;;0.00;75.17;101601.66;80930;1292;3051251;-74
2024/01/30 07:42:09;;;;;;;19.00;9.60;;;;;;;-0.04;74.73;101607.10;82177;1295;3012661;-72
2024/01/30 07:44:36;;;;;;;21.80;10.30;;;;;;;-0.07;73.80;101611.70;82214;1292;3011543;-71
2024/01/30 07:47:04;;;;;;;21.60;10.90;;;;;;;-0.07;73.96;101603.27;80873;1292;3025983;-70
2024/01/30 07:49:31;;;;;;;17.00;9.60;;;;;;;-0.09;73.45;101606.33;82212;1293;3012763;-76
2024/01/30 07:51:58;;;;;;;23.20;11.00;;;;;;;-0.11;73.41;101605.61;82184;1292;3011452;-74
2024/01/30 07:54:25;;;;;;;19.00;10.10;;;;;;;0.03;72.97;101608.78;80936;1294;3052266;-73
2024/01/30 07:56:52;;;;;;;18.30;9.20;;;;;;;0.06;73.05;101611.75;82233;1292;3013194;-75
2024/01/30 07:59:21;;;;;;;19.70;9.60;;;;;;;-0.03;72.91;101615.56;82155;1292;3011250;-77
2024/01/30 08:01:49;;;;;;;17.50;8.70;;;;;;;0.10;72.98;101616.13;80920;1292;3056665;-76
2024/01/30 08:04:16;;;;;;;20.70;9.80;;;;;;;0.38;72.62;101614.70;82162;1292;3018820;-74
2024/01/30 08:06:42;;;;;;;21.30;10.60;;;;;;;0.47;71.96;101610.16;82125;1294;3011372;-75
2024/01/30 08:09:10;;;;;;;20.30;11.10;;;;;;;0.34;71.80;101616.86;80934;1293;3026739;-76
2024/01/30 08:11:37;;;;;;;19.30;10.30;;;;;;;0.33;71.50;101621.33;82109;1295;3012860;-74
2024/01/30 08:14:03;;;;;;;21.90;10.10;;;;;;;0.33;71.04;101622.36;82142;1294;3011265;-71
2024/01/30 08:16:32;;;;;;;17.90;9.30;;;;;;;0.47;71.30;101615.52;80888;1293;3027277;-74
2024/01/30 08:18:58;;;;;;;15.60;8.80;;;;;;;0.63;70.72;101607.48;82169;1292;3018247;-73
2024/01/30 08:21:25;;;;;;;19.50;9.80;;;;;;;0.70;69.92;101608.60;82121;1292;3011358;-67
2024/01/30 08:23:53;;;;;;;19.10;9.30;;;;;;;0.34;70.12;101613.25;80899;1292;3026951;-72
2024/01/30 08:26:20;;;;;;;21.20;10.70;;;;;;;0.21;70.48;101605.80;82162;1292;3013085;-74
2024/01/30 08:28:50;;;;;;;22.80;11.90;;;;;;;0.40;70.54;101601.61;82129;1292;3011324;-75
2024/01/30 08:31:17;;;;;;;22.80;11.50;;;;;;;0.61;69.87;101593.13;80904;1292;3055986;-74
2024/01/30 08:33:44;;;;;;;17.80;8.90;;;;;;;0.42;69.46;101591.99;82201;1292;3011251;-75
2024/01/30 08:36:10;;;;;;;19.00;10.70;;;;;;;0.44;69.43;101581.84;82132;1292;3011294;-72
2024/01/30 08:38:38;;;;;;;19.60;10.80;;;;;;;0.43;70.16;101578.90;80942;1294;3025996;-76
2024/01/30 08:41:05;;;;;;;25.90;12.70;;;;;;;0.50;69.51;101582.09;82245;1292;3013021;-72
2024/01/30 08:43:32;;;;;;;23.40;12.20;;;;;;;0.50;69.25;101579.52;82157;1295;3011513;-70
2024/01/30 08:46:00;;;;;;;23.70;11.50;;;;;;;0.34;69.66;101585.31;80907;1294;3025852;-70
2024/01/30 08:48:27;;;;;;;20.90;10.60;;;;;;;0.35;69.45;101578.78;82147;1293;3012728;-74
2024/01/30 08:50:53;;;;;;;26.20;12.60;;;;;;;0.33;69.60;101579.95;82144;1292;3011205;-73
2024/01/30 08:53:21;;;;;;;23.60;12.40;;;;;;;0.39;69.95;101567.98;80912;1293;3026646;-74
2024/01/30 08:55:48;;;;;;;25.70;12.60;;;;;;;0.67;69.68;101559.56;82202;1292;3012659;-74
2024/01/30 08:58:18;;;;;;;29.40;13.00;;;;;;;0.76;68.88;101560.20;82131;1294;3011130;-70
2024/01/30 09:00:46;;;;;;;25.30;12.40;;;;;;;0.71;68.38;101561.19;80905;1292;3055807;-68
2024/01/30 09:03:13;;;;;;;24.40;12.50;;;;;;;0.86;67.91;101549.48;82224;1292;3012707;-73
2024/01/30 09:05:39;;;;;;;25.70;12.20;;;;;;;1.12;67.88;101545.98;82154;1295;3011216;-73
2024/01/30 09:11:55;;;;;;;31.40;15.70;;;;;;;1.53;66.64;101532.78;80935;1291;3012783;-71
2024/01/30 09:14:22;;;;;;;28.70;14.60;;;;;;;1.69;65.88;101530.51;79819;1291;3013036;-71
2024/01/30 09:16:49;;;;;;;32.20;15.40;;;;;;;1.58;65.51;101535.07;79763;1296;3011185;-70
2024/01/30 09:19:17;;;;;;;32.10;14.00;;;;;;;1.66;65.57;101529.79;78658;1291;3051087;-70
2024/01/30 09:21:43;;;;;;;27.70;13.20;;;;;;;1.75;65.04;101529.19;80052;1292;3012989;-69
2024/01/30 09:24:10;;;;;;;33.90;15.00;;;;;;;1.54;64.73;101532.44;79694;1297;3011874;-72
2024/01/30 09:26:38;;;;;;;33.70;15.70;;;;;;;1.42;65.61;101528.52;78589;1290;3026549;-71
2024/01/30 09:29:04;;;;;;;26.90;14.10;;;;;;;1.44;65.37;101526.99;79920;1293;3012863;-71
2024/01/30 09:31:31;;;;;;;25.00;13.40;;;;;;;1.57;65.20;101524.35;79943;1293;3012850;-73
2024/01/30 09:33:59;;;;;;;24.40;13.00;;;;;;;1.64;64.92;101520.79;78762;1293;3026608;-74
2024/01/30 09:36:26;;;;;;;26.20;13.00;;;;;;;1.70;64.68;101519.98;79816;1294;3021250;-72
2024/01/30 09:38:52;;;;;;;34.90;14.90;;;;;;;1.89;64.59;101513.39;80050;1289;3011788;-72
2024/01/30 09:41:20;;;;;;;27.20;13.40;;;;;;;2.08;63.84;101509.90;78638;1291;3026185;-70
2024/01/30 09:43:48;;;;;;;32.10;14.30;;;;;;;2.00;63.44;101503.27;79635;1291;3014333;-71
2024/01/30 09:46:15;;;;;;;29.20;14.70;;;;;;;2.14;63.48;101503.20;80264;1291;3011656;-74
2024/01/30 09:48:43;;;;;;;25.00;12.50;;;;;;;2.08;63.43;101498.83;78636;1291;3052763;-72
2024/01/30 09:51:10;;;;;;;25.70;13.40;;;;;;;2.20;63.30;101488.20;79755;1294;3011847;-78
2024/01/30 09:53:37;;;;;;;24.40;12.00;;;;;;;2.43;62.89;101482.27;79873;1291;3013579;-72
2024/01/30 09:56:05;;;;;;;23.80;12.30;;;;;;;2.37;62.43;101496.08;78618;1291;3026388;-73
2024/01/30 09:58:31;;;;;;;24.90;13.90;;;;;;;2.21;62.43;101502.21;79735;1291;3013160;-74
2024/01/30 10:00:58;;;;;;;27.20;12.00;;;;;;;2.06;62.60;101495.36;79760;1294;3011587;-70
2024/01/30 10:03:28;;;;;;;24.60;12.20;;;;;;;1.94;63.09;101491.99;78735;1293;3051378;-75
2024/01/30 10:05:55;;;;;;;20.30;11.40;;;;;;;2.02;63.04;101482.02;79894;1293;3012951;-75
2024/01/30 10:08:21;;;;;;;24.00;12.50;;;;;;;2.13;63.04;101481.76;79899;1294;3013094;-73
2024/01/30 10:10:49;;;;;;;24.00;13.00;;;;;;;2.15;63.06;101478.83;78882;1290;3047687;-73
2024/01/30 10:13:16;;;;;;;27.50;14.20;;;;;;;2.32;63.02;101475.64;79953;1291;3013941;-74
2024/01/30 10:15:43;;;;;;;24.40;12.60;;;;;;;2.26;62.52;101480.11;79758;1294;3011341;-71
2024/01/30 10:18:11;;;;;;;26.40;13.40;;;;;;;2.10;63.20;101472.91;78561;1293;3026325;-74
2024/01/30 10:20:38;;;;;;;24.00;12.30;;;;;;;2.40;63.09;101466.69;79899;1294;3020495;-69
2024/01/30 10:23:04;;;;;;;20.50;10.50;;;;;;;2.58;62.59;101467.63;79768;1291;3011579;-74
2024/01/30 10:25:32;;;;;;;21.80;11.30;;;;;;;2.61;61.74;101465.41;78627;1290;3027229;-75
2024/01/30 10:27:59;;;;;;;20.90;10.20;;;;;;;2.72;61.47;101460.95;79904;1294;3013559;-71
2024/01/30 10:30:26;;;;;;;19.80;9.90;;;;;;;2.69;61.19;101459.38;79931;1293;3011706;-74
2024/01/30 10:32:54;;;;;;;20.10;10.60;;;;;;;2.39;61.63;101452.48;78520;1292;3051357;-72
2024/01/30 10:35:21;;;;;;;16.60;9.10;;;;;;;2.50;61.88;101448.58;79829;1294;3013705;-74
2024/01/30 10:37:48;;;;;;;19.20;10.40;;;;;;;2.63;61.25;101450.36;79915;1294;3011651;-75
2024/01/30 10:40:16;;;;;;;20.80;9.90;;;;;;;2.76;61.35;101445.73;78542;1289;3025921;-76
2024/01/30 10:42:43;;;;;;;20.40;10.40;;;;;;;2.85;61.03;101443.52;79841;1291;3013221;-73
2024/01/30 10:45:18;;;;;;;19.30;10.90;;;;;;;2.97;60.99;101449.42;79792;1291;3011470;-70
2024/01/30 10:47:49;;;;;;;19.60;11.20;;;;;;;3.06;60.67;101447.71;78649;1294;3050984;-73
2024/01/30 10:50:16;;;;;;;21.00;10.50;;;;;;;3.12;60.38;101438.55;80018;1292;3011833;-73
2024/01/30 10:52:45;;;;;;;18.10;10.00;;;;;;;3.29;60.17;101433.20;79450;1291;3011576;-77
2024/01/30 10:55:12;;;;;;;17.40;10.30;;;;;;;3.42;60.12;101430.77;80317;1289;3012945;-79
2024/01/30 10:57:39;;;;;;;19.30;8.80;;;;;;;3.36;59.33;101438.92;79970;1294;3013732;-78
2024/01/30 11:00:12;;;;;;;17.40;9.80;;;;;;;3.07;59.46;101432.83;78878;1291;3025445;-79
2024/01/30 11:02:43;;;;;;;;;;;;;;;2.87;60.24;101428.63;80133;1289;3011872;-79
2024/01/30 11:05:11;;;;;;;17.90;9.50;;;;;;;2.90;60.39;101431.75;79152;1291;3052848;-73